sensor_id;sensor_type;location;lat;lon;timestamp;P1;durP1;ratioP1;P2;durP2;ratioP2
77571;SDS011;67214;47.454;18.966;2024-01-30T00:00:37;34.63;;;18.17;;
77571;SDS011;67214;47.454;18.966;2024-01-30T00:03:05;22.40;;;12.43;;
77571;SDS011;67214;47.454;18.966;2024-01-30T00:05:32;34.75;;;15.05;;
77571;SDS011;67214;47.454;18.966;2024-01-30T00:08:00;30.92;;;14.23;;
77571;SDS011;67214;47.454;18.966;2024-01-30T00:10:27;31.80;;;13.90;;
77571;SDS011;67214;47.454;18.966;2024-01-30T00:12:55;32.15;;;14.93;;
77571;SDS011;67214;47.454;18.966;2024-01-30T00:15:22;36.63;;;17.02;;
77571;SDS011;67214;47.454;18.966;2024-01-30T00:17:50;25.62;;;12.60;;
77571;SDS011;67214;47.454;18.966;2024-01-30T00:20:18;29.37;;;14.03;;
77571;SDS011;67214;47.454;18.966;2024-01-30T00:22:45;25.95;;;13.10;;
77571;SDS011;67214;47.454;18.966;2024-01-30T00:25:13;27.80;;;12.88;;
77571;SDS011;67214;47.454;18.966;2024-01-30T00:27:40;26.27;;;14.07;;
77571;SDS011;67214;47.454;18.966;2024-01-30T00:30:09;27.20;;;13.93;;
77571;SDS011;67214;47.454;18.966;2024-01-30T00:32:37;24.15;;;13.05;;
77571;SDS011;67214;47.454;18.966;2024-01-30T00:35:05;25.70;;;12.15;;
77571;SDS011;67214;47.454;18.966;2024-01-30T00:37:32;19.57;;;11.60;;
77571;SDS011;67214;47.454;18.966;2024-01-30T00:40:00;28.73;;;14.47;;
77571;SDS011;67214;47.454;18.966;2024-01-30T00:42:27;28.30;;;13.15;;
77571;SDS011;67214;47.454;18.966;2024-01-30T00:44:54;21.95;;;12.37;;
77571;SDS011;67214;47.454;18.966;2024-01-30T00:47:22;25.32;;;13.15;;
77571;SDS011;67214;47.454;18.966;2024-01-30T00:49:49;27.42;;;12.45;;
77571;SDS011;67214;47.454;18.966;2024-01-30T00:52:17;27.40;;;13.05;;
77571;SDS011;67214;47.454;18.966;2024-01-30T00:54:44;24.70;;;12.63;;
77571;SDS011;67214;47.454;18.966;2024-01-30T00:57:12;24.23;;;13.15;;
77571;SDS011;67214;47.454;18.966;2024-01-30T00:59:39;27.42;;;12.60;;
77571;SDS011;67214;47.454;18.966;2024-01-30T01:02:06;29.92;;;13.15;;
77571;SDS011;67214;47.454;18.966;2024-01-30T01:04:34;25.62;;;13.28;;
77571;SDS011;67214;47.454;18.966;2024-01-30T01:07:02;25.50;;;13.62;;
77571;SDS011;67214;47.454;18.966;2024-01-30T01:09:29;24.05;;;12.37;;
77571;SDS011;67214;47.454;18.966;2024-01-30T01:11:57;32.67;;;14.18;;
77571;SDS011;67214;47.454;18.966;2024-01-30T01:14:24;23.40;;;12.60;;
77571;SDS011;67214;47.454;18.966;2024-01-30T01:16:51;26.07;;;13.60;;
77571;SDS011;67214;47.454;18.966;2024-01-30T01:19:19;26.57;;;14.00;;
77571;SDS011;67214;47.454;18.966;2024-01-30T01:21:46;21.25;;;11.03;;
77571;SDS011;67214;47.454;18.966;2024-01-30T01:24:14;27.45;;;11.93;;
77571;SDS011;67214;47.454;18.966;2024-01-30T01:26:41;30.72;;;13.80;;
77571;SDS011;67214;47.454;18.966;2024-01-30T01:29:09;25.75;;;12.45;;
77571;SDS011;67214;47.454;18.966;2024-01-30T01:31:37;22.65;;;12.95;;
77571;SDS011;67214;47.454;18.966;2024-01-30T01:34:07;23.20;;;13.55;;
77571;SDS011;67214;47.454;18.966;2024-01-30T01:36:34;26.07;;;12.45;;
77571;SDS011;67214;47.454;18.966;2024-01-30T01:39:02;25.27;;;13.25;;
77571;SDS011;67214;47.454;18.966;2024-01-30T01:41:30;26.33;;;13.05;;
77571;SDS011;67214;47.454;18.966;2024-01-30T01:43:58;23.15;;;12.60;;
77571;SDS011;67214;47.454;18.966;2024-01-30T01:46:27;19.30;;;10.78;;
77571;SDS011;67214;47.454;18.966;2024-01-30T01:48:56;22.80;;;11.08;;
77571;SDS011;67214;47.454;18.966;2024-01-30T01:51:24;28.67;;;12.25;;
77571;SDS011;67214;47.454;18.966;2024-01-30T01:53:54;32.10;;;13.45;;
77571;SDS011;67214;47.454;18.966;2024-01-30T01:56:23;24.35;;;11.68;;
77571;SDS011;67214;47.454;18.966;2024-01-30T01:58:52;27.30;;;14.68;;
77571;SDS011;67214;47.454;18.966;2024-01-30T02:01:21;25.05;;;12.98;;
77571;SDS011;67214;47.454;18.966;2024-01-30T02:03:51;33.78;;;13.88;;
77571;SDS011;67214;47.454;18.966;2024-01-30T02:06:19;27.30;;;13.65;;
77571;SDS011;67214;47.454;18.966;2024-01-30T02:08:47;28.23;;;12.33;;
77571;SDS011;67214;47.454;18.966;2024-01-30T02:11:14;20.68;;;11.15;;
77571;SDS011;67214;47.454;18.966;2024-01-30T02:13:42;23.95;;;12.98;;
77571;SDS011;67214;47.454;18.966;2024-01-30T02:16:09;23.42;;;12.68;;
77571;SDS011;67214;47.454;18.966;2024-01-30T02:18:37;22.05;;;12.53;;
77571;SDS011;67214;47.454;18.966;2024-01-30T02:21:06;24.85;;;12.65;;
77571;SDS011;67214;47.454;18.966;2024-01-30T02:23:34;25.52;;;11.65;;
77571;SDS011;67214;47.454;18.966;2024-01-30T02:26:02;21.12;;;11.83;;
77571;SDS011;67214;47.454;18.966;2024-01-30T02:28:29;24.35;;;12.10;;
77571;SDS011;67214;47.454;18.966;2024-01-30T02:30:57;25.40;;;12.35;;
77571;SDS011;67214;47.454;18.966;2024-01-30T02:33:24;22.73;;;12.45;;
77571;SDS011;67214;47.454;18.966;2024-01-30T02:35:52;21.52;;;12.07;;
77571;SDS011;67214;47.454;18.966;2024-01-30T02:38:20;19.12;;;10.48;;
77571;SDS011;67214;47.454;18.966;2024-01-30T02:40:49;27.55;;;12.30;;
77571;SDS011;67214;47.454;18.966;2024-01-30T02:43:16;29.63;;;13.20;;
77571;SDS011;67214;47.454;18.966;2024-01-30T02:45:44;28.07;;;14.85;;
77571;SDS011;67214;47.454;18.966;2024-01-30T02:48:11;32.40;;;13.48;;
77571;SDS011;67214;47.454;18.966;2024-01-30T02:50:39;25.17;;;11.65;;
77571;SDS011;67214;47.454;18.966;2024-01-30T02:53:06;23.32;;;12.07;;
77571;SDS011;67214;47.454;18.966;2024-01-30T02:55:33;25.25;;;12.58;;
77571;SDS011;67214;47.454;18.966;2024-01-30T02:58:01;23.25;;;12.37;;
77571;SDS011;67214;47.454;18.966;2024-01-30T03:00:28;21.82;;;11.48;;
77571;SDS011;67214;47.454;18.966;2024-01-30T03:02:56;25.12;;;12.78;;
77571;SDS011;67214;47.454;18.966;2024-01-30T03:05:23;27.60;;;13.58;;
77571;SDS011;67214;47.454;18.966;2024-01-30T03:07:51;26.75;;;11.97;;
77571;SDS011;67214;47.454;18.966;2024-01-30T03:10:18;24.47;;;13.22;;
77571;SDS011;67214;47.454;18.966;2024-01-30T03:12:46;24.70;;;12.25;;
77571;SDS011;67214;47.454;18.966;2024-01-30T03:15:13;20.32;;;10.45;;
77571;SDS011;67214;47.454;18.966;2024-01-30T03:17:40;26.15;;;12.25;;
77571;SDS011;67214;47.454;18.966;2024-01-30T03:20:08;22.35;;;12.30;;
77571;SDS011;67214;47.454;18.966;2024-01-30T03:22:36;24.75;;;13.18;;
77571;SDS011;67214;47.454;18.966;2024-01-30T03:25:03;16.60;;;8.15;;
77571;SDS011;67214;47.454;18.966;2024-01-30T03:27:31;24.30;;;12.28;;
77571;SDS011;67214;47.454;18.966;2024-01-30T03:29:59;22.90;;;12.20;;
77571;SDS011;67214;47.454;18.966;2024-01-30T03:32:26;20.88;;;10.18;;
77571;SDS011;67214;47.454;18.966;2024-01-30T03:34:54;16.50;;;8.93;;
77571;SDS011;67214;47.454;18.966;2024-01-30T03:37:21;25.62;;;12.10;;
77571;SDS011;67214;47.454;18.966;2024-01-30T03:39:49;22.70;;;12.05;;
77571;SDS011;67214;47.454;18.966;2024-01-30T03:42:16;24.72;;;10.85;;
77571;SDS011;67214;47.454;18.966;2024-01-30T03:44:44;21.60;;;10.50;;
77571;SDS011;67214;47.454;18.966;2024-01-30T03:47:11;27.45;;;12.58;;
77571;SDS011;67214;47.454;18.966;2024-01-30T03:49:38;24.90;;;12.23;;
77571;SDS011;67214;47.454;18.966;2024-01-30T03:52:06;25.30;;;12.93;;
77571;SDS011;67214;47.454;18.966;2024-01-30T03:54:34;25.52;;;11.20;;
77571;SDS011;67214;47.454;18.966;2024-01-30T03:57:01;22.55;;;10.43;;
77571;SDS011;67214;47.454;18.966;2024-01-30T03:59:29;28.40;;;11.33;;
77571;SDS011;67214;47.454;18.966;2024-01-30T04:01:56;21.52;;;11.48;;
77571;SDS011;67214;47.454;18.966;2024-01-30T04:04:24;24.00;;;11.15;;
77571;SDS011;67214;47.454;18.966;2024-01-30T04:06:51;21.45;;;11.22;;
77571;SDS011;67214;47.454;18.966;2024-01-30T04:09:19;19.73;;;10.05;;
77571;SDS011;67214;47.454;18.966;2024-01-30T04:11:46;18.40;;;9.68;;
77571;SDS011;67214;47.454;18.966;2024-01-30T04:14:13;23.70;;;11.97;;
77571;SDS011;67214;47.454;18.966;2024-01-30T04:16:41;22.67;;;11.08;;
77571;SDS011;67214;47.454;18.966;2024-01-30T04:19:09;28.02;;;13.05;;
77571;SDS011;67214;47.454;18.966;2024-01-30T04:21:36;23.70;;;12.05;;
77571;SDS011;67214;47.454;18.966;2024-01-30T04:24:03;22.00;;;10.93;;
77571;SDS011;67214;47.454;18.966;2024-01-30T04:26:31;22.48;;;11.90;;
77571;SDS011;67214;47.454;18.966;2024-01-30T04:28:59;22.05;;;11.12;;
77571;SDS011;67214;47.454;18.966;2024-01-30T04:31:26;20.57;;;10.28;;
77571;SDS011;67214;47.454;18.966;2024-01-30T04:33:54;20.23;;;11.10;;
77571;SDS011;67214;47.454;18.966;2024-01-30T04:36:21;22.93;;;10.45;;
77571;SDS011;67214;47.454;18.966;2024-01-30T04:38:48;26.40;;;12.95;;
77571;SDS011;67214;47.454;18.966;2024-01-30T04:41:16;22.05;;;11.73;;
77571;SDS011;67214;47.454;18.966;2024-01-30T04:43:43;22.00;;;11.50;;
77571;SDS011;67214;47.454;18.966;2024-01-30T04:46:11;14.87;;;9.13;;
77571;SDS011;67214;47.454;18.966;2024-01-30T04:48:38;28.85;;;13.48;;
77571;SDS011;67214;47.454;18.966;2024-01-30T04:51:05;25.23;;;11.38;;
77571;SDS011;67214;47.454;18.966;2024-01-30T04:53:33;21.30;;;11.25;;
77571;SDS011;67214;47.454;18.966;2024-01-30T04:56:00;19.70;;;10.08;;
77571;SDS011;67214;47.454;18.966;2024-01-30T04:58:28;22.40;;;10.48;;
77571;SDS011;67214;47.454;18.966;2024-01-30T05:00:55;24.85;;;12.18;;
77571;SDS011;67214;47.454;18.966;2024-01-30T05:03:23;20.12;;;9.80;;
77571;SDS011;67214;47.454;18.966;2024-01-30T05:05:50;26.80;;;12.23;;
77571;SDS011;67214;47.454;18.966;2024-01-30T05:08:18;23.12;;;11.75;;
77571;SDS011;67214;47.454;18.966;2024-01-30T05:10:45;23.60;;;11.97;;
77571;SDS011;67214;47.454;18.966;2024-01-30T05:13:13;22.05;;;12.73;;
77571;SDS011;67214;47.454;18.966;2024-01-30T05:15:40;22.13;;;11.08;;
77571;SDS011;67214;47.454;18.966;2024-01-30T05:18:08;29.42;;;13.88;;
77571;SDS011;67214;47.454;18.966;2024-01-30T05:20:35;24.05;;;11.48;;
77571;SDS011;67214;47.454;18.966;2024-01-30T05:23:02;24.32;;;12.82;;
77571;SDS011;67214;47.454;18.966;2024-01-30T05:25:30;29.80;;;13.83;;
77571;SDS011;67214;47.454;18.966;2024-01-30T05:27:57;27.77;;;13.55;;
77571;SDS011;67214;47.454;18.966;2024-01-30T05:30:25;25.20;;;12.40;;
77571;SDS011;67214;47.454;18.966;2024-01-30T05:32:52;33.98;;;17.48;;
77571;SDS011;67214;47.454;18.966;2024-01-30T05:35:20;29.35;;;16.35;;
77571;SDS011;67214;47.454;18.966;2024-01-30T05:37:50;24.77;;;12.47;;
77571;SDS011;67214;47.454;18.966;2024-01-30T05:40:18;30.10;;;13.62;;
77571;SDS011;67214;47.454;18.966;2024-01-30T05:42:45;31.15;;;13.50;;
77571;SDS011;67214;47.454;18.966;2024-01-30T05:45:12;25.65;;;14.35;;
77571;SDS011;67214;47.454;18.966;2024-01-30T05:47:40;27.50;;;14.50;;
77571;SDS011;67214;47.454;18.966;2024-01-30T05:50:07;28.27;;;14.28;;
77571;SDS011;67214;47.454;18.966;2024-01-30T05:52:35;26.80;;;12.15;;
77571;SDS011;67214;47.454;18.966;2024-01-30T05:55:02;20.48;;;11.18;;
77571;SDS011;67214;47.454;18.966;2024-01-30T05:57:31;28.05;;;13.55;;
77571;SDS011;67214;47.454;18.966;2024-01-30T05:59:58;18.85;;;9.70;;
77571;SDS011;67214;47.454;18.966;2024-01-30T06:02:26;23.32;;;9.33;;
77571;SDS011;67214;47.454;18.966;2024-01-30T06:04:53;32.70;;;13.83;;
77571;SDS011;67214;47.454;18.966;2024-01-30T06:07:21;39.23;;;16.85;;
77571;SDS011;67214;47.454;18.966;2024-01-30T06:09:48;45.05;;;19.02;;
77571;SDS011;67214;47.454;18.966;2024-01-30T06:12:15;27.60;;;12.47;;
77571;SDS011;67214;47.454;18.966;2024-01-30T06:14:43;31.52;;;15.13;;
77571;SDS011;67214;47.454;18.966;2024-01-30T06:17:10;30.08;;;15.53;;
77571;SDS011;67214;47.454;18.966;2024-01-30T06:19:38;45.45;;;19.27;;
77571;SDS011;67214;47.454;18.966;2024-01-30T06:22:05;55.45;;;27.15;;
77571;SDS011;67214;47.454;18.966;2024-01-30T06:24:33;49.35;;;22.48;;
77571;SDS011;67214;47.454;18.966;2024-01-30T06:27:00;64.50;;;29.27;;
77571;SDS011;67214;47.454;18.966;2024-01-30T06:29:28;55.15;;;24.65;;
77571;SDS011;67214;47.454;18.966;2024-01-30T06:31:55;63.20;;;29.40;;
77571;SDS011;67214;47.454;18.966;2024-01-30T06:34:22;63.85;;;27.80;;
77571;SDS011;67214;47.454;18.966;2024-01-30T06:36:52;46.00;;;21.12;;
77571;SDS011;67214;47.454;18.966;2024-01-30T06:39:19;38.23;;;19.15;;
77571;SDS011;67214;47.454;18.966;2024-01-30T06:41:46;37.63;;;15.93;;
77571;SDS011;67214;47.454;18.966;2024-01-30T06:44:14;36.33;;;18.55;;
77571;SDS011;67214;47.454;18.966;2024-01-30T06:46:41;39.85;;;18.57;;
77571;SDS011;67214;47.454;18.966;2024-01-30T06:49:09;47.20;;;19.87;;
77571;SDS011;67214;47.454;18.966;2024-01-30T06:51:36;43.98;;;21.10;;
77571;SDS011;67214;47.454;18.966;2024-01-30T06:54:04;41.68;;;20.50;;
77571;SDS011;67214;47.454;18.966;2024-01-30T06:56:31;39.83;;;20.30;;
77571;SDS011;67214;47.454;18.966;2024-01-30T06:58:59;31.15;;;15.53;;
77571;SDS011;67214;47.454;18.966;2024-01-30T07:01:29;42.27;;;20.37;;
77571;SDS011;67214;47.454;18.966;2024-01-30T07:03:57;35.80;;;18.52;;
77571;SDS011;67214;47.454;18.966;2024-01-30T07:06:24;31.40;;;16.82;;
77571;SDS011;67214;47.454;18.966;2024-01-30T07:08:52;33.95;;;17.95;;
77571;SDS011;67214;47.454;18.966;2024-01-30T07:11:20;38.00;;;17.98;;
77571;SDS011;67214;47.454;18.966;2024-01-30T07:13:54;35.52;;;17.25;;
77571;SDS011;67214;47.454;18.966;2024-01-30T07:16:18;38.90;;;18.37;;
77571;SDS011;67214;47.454;18.966;2024-01-30T07:18:45;28.95;;;14.47;;
77571;SDS011;67214;47.454;18.966;2024-01-30T07:21:13;36.70;;;17.10;;
77571;SDS011;67214;47.454;18.966;2024-01-30T07:23:40;26.60;;;14.13;;
77571;SDS011;67214;47.454;18.966;2024-01-30T07:26:09;30.57;;;18.42;;
77571;SDS011;67214;47.454;18.966;2024-01-30T07:28:36;34.48;;;17.45;;
77571;SDS011;67214;47.454;18.966;2024-01-30T07:31:04;37.33;;;22.00;;
77571;SDS011;67214;47.454;18.966;2024-01-30T07:33:32;26.75;;;15.38;;
77571;SDS011;67214;47.454;18.966;2024-01-30T07:35:59;30.88;;;16.95;;
77571;SDS011;67214;47.454;18.966;2024-01-30T07:38:26;28.80;;;16.17;;
77571;SDS011;67214;47.454;18.966;2024-01-30T07:40:54;37.70;;;19.10;;
77571;SDS011;67214;47.454;18.966;2024-01-30T07:43:21;41.42;;;19.25;;
77571;SDS011;67214;47.454;18.966;2024-01-30T07:45:49;31.37;;;15.78;;
77571;SDS011;67214;47.454;18.966;2024-01-30T07:48:17;33.75;;;16.55;;
77571;SDS011;67214;47.454;18.966;2024-01-30T07:50:44;34.45;;;17.00;;
77571;SDS011;67214;47.454;18.966;2024-01-30T07:53:11;37.83;;;17.30;;
77571;SDS011;67214;47.454;18.966;2024-01-30T07:55:39;31.20;;;14.87;;
77571;SDS011;67214;47.454;18.966;2024-01-30T07:58:08;31.95;;;14.68;;
77571;SDS011;67214;47.454;18.966;2024-01-30T08:00:36;34.35;;;17.23;;
77571;SDS011;67214;47.454;18.966;2024-01-30T08:03:03;35.83;;;18.02;;
77571;SDS011;67214;47.454;18.966;2024-01-30T08:05:31;28.80;;;16.25;;
77571;SDS011;67214;47.454;18.966;2024-01-30T08:07:58;29.42;;;15.93;;
77571;SDS011;67214;47.454;18.966;2024-01-30T08:10:26;36.33;;;19.92;;
77571;SDS011;67214;47.454;18.966;2024-01-30T08:12:53;30.72;;;15.45;;
77571;SDS011;67214;47.454;18.966;2024-01-30T08:15:21;32.53;;;19.20;;
77571;SDS011;67214;47.454;18.966;2024-01-30T08:17:48;35.17;;;21.05;;
77571;SDS011;67214;47.454;18.966;2024-01-30T08:20:17;44.10;;;24.80;;
77571;SDS011;67214;47.454;18.966;2024-01-30T08:22:45;50.23;;;28.20;;
77571;SDS011;67214;47.454;18.966;2024-01-30T08:25:14;44.83;;;26.07;;
77571;SDS011;67214;47.454;18.966;2024-01-30T08:27:41;49.45;;;31.23;;
77571;SDS011;67214;47.454;18.966;2024-01-30T08:30:09;44.80;;;25.68;;
77571;SDS011;67214;47.454;18.966;2024-01-30T08:32:36;47.35;;;26.10;;
77571;SDS011;67214;47.454;18.966;2024-01-30T08:35:04;42.50;;;24.45;;
77571;SDS011;67214;47.454;18.966;2024-01-30T08:37:32;37.65;;;21.12;;
77571;SDS011;67214;47.454;18.966;2024-01-30T08:40:01;39.58;;;22.07;;
77571;SDS011;67214;47.454;18.966;2024-01-30T08:42:30;35.70;;;18.48;;
77571;SDS011;67214;47.454;18.966;2024-01-30T08:44:58;36.70;;;20.15;;
77571;SDS011;67214;47.454;18.966;2024-01-30T08:47:26;34.45;;;19.07;;
77571;SDS011;67214;47.454;18.966;2024-01-30T08:49:53;40.75;;;22.50;;
77571;SDS011;67214;47.454;18.966;2024-01-30T08:52:21;40.43;;;20.17;;
77571;SDS011;67214;47.454;18.966;2024-01-30T08:54:48;26.73;;;15.32;;
77571;SDS011;67214;47.454;18.966;2024-01-30T08:57:15;27.05;;;16.60;;
77571;SDS011;67214;47.454;18.966;2024-01-30T08:59:43;33.38;;;18.32;;
77571;SDS011;67214;47.454;18.966;2024-01-30T09:02:13;39.80;;;20.17;;
77571;SDS011;67214;47.454;18.966;2024-01-30T09:04:41;38.88;;;19.12;;
77571;SDS011;67214;47.454;18.966;2024-01-30T09:07:09;33.65;;;16.80;;
77571;SDS011;67214;47.454;18.966;2024-01-30T09:09:39;39.83;;;19.37;;
77571;SDS011;67214;47.454;18.966;2024-01-30T09:12:06;40.52;;;20.00;;
77571;SDS011;67214;47.454;18.966;2024-01-30T09:14:36;29.45;;;15.25;;
77571;SDS011;67214;47.454;18.966;2024-01-30T09:17:04;29.48;;;16.00;;
77571;SDS011;67214;47.454;18.966;2024-01-30T09:19:31;26.10;;;14.75;;
77571;SDS011;67214;47.454;18.966;2024-01-30T09:21:59;32.95;;;17.67;;
77571;SDS011;67214;47.454;18.966;2024-01-30T09:24:26;29.18;;;16.62;;
77571;SDS011;67214;47.454;18.966;2024-01-30T09:26:54;34.18;;;16.42;;
77571;SDS011;67214;47.454;18.966;2024-01-30T09:29:21;25.02;;;13.40;;
77571;SDS011;67214;47.454;18.966;2024-01-30T09:31:49;28.25;;;15.43;;
77571;SDS011;67214;47.454;18.966;2024-01-30T09:34:16;31.37;;;14.93;;
77571;SDS011;67214;47.454;18.966;2024-01-30T09:36:44;26.97;;;14.43;;
77571;SDS011;67214;47.454;18.966;2024-01-30T09:39:11;28.87;;;14.65;;
77571;SDS011;67214;47.454;18.966;2024-01-30T09:41:51;31.15;;;16.82;;
77571;SDS011;67214;47.454;18.966;2024-01-30T09:44:13;29.25;;;15.05;;
77571;SDS011;67214;47.454;18.966;2024-01-30T09:46:46;32.15;;;17.27;;
77571;SDS011;67214;47.454;18.966;2024-01-30T09:49:14;26.40;;;15.83;;
77571;SDS011;67214;47.454;18.966;2024-01-30T09:51:44;27.50;;;15.78;;
77571;SDS011;67214;47.454;18.966;2024-01-30T09:54:13;30.88;;;17.75;;
77571;SDS011;67214;47.454;18.966;2024-01-30T09:56:41;32.95;;;17.52;;
77571;SDS011;67214;47.454;18.966;2024-01-30T09:59:08;39.15;;;20.45;;
77571;SDS011;67214;47.454;18.966;2024-01-30T10:01:36;34.60;;;19.23;;
77571;SDS011;67214;47.454;18.966;2024-01-30T10:04:04;29.65;;;17.05;;
77571;SDS011;67214;47.454;18.966;2024-01-30T10:06:32;34.53;;;19.37;;
77571;SDS011;67214;47.454;18.966;2024-01-30T10:09:00;30.68;;;16.95;;
77571;SDS011;67214;47.454;18.966;2024-01-30T10:11:28;30.20;;;16.90;;
77571;SDS011;67214;47.454;18.966;2024-01-30T10:13:55;30.40;;;17.12;;
77571;SDS011;67214;47.454;18.966;2024-01-30T10:16:23;29.00;;;16.05;;
77571;SDS011;67214;47.454;18.966;2024-01-30T10:18:50;32.35;;;19.12;;
77571;SDS011;67214;47.454;18.966;2024-01-30T10:21:18;29.70;;;18.05;;
77571;SDS011;67214;47.454;18.966;2024-01-30T10:23:45;31.17;;;16.60;;
77571;SDS011;67214;47.454;18.966;2024-01-30T10:26:13;26.45;;;15.60;;
77571;SDS011;67214;47.454;18.966;2024-01-30T10:28:43;30.62;;;17.00;;
77571;SDS011;67214;47.454;18.966;2024-01-30T10:31:10;28.62;;;15.65;;
77571;SDS011;67214;47.454;18.966;2024-01-30T10:33:39;29.00;;;17.35;;
77571;SDS011;67214;47.454;18.966;2024-01-30T10:36:07;33.00;;;18.40;;
77571;SDS011;67214;47.454;18.966;2024-01-30T10:38:34;33.53;;;19.40;;
77571;SDS011;67214;47.454;18.966;2024-01-30T10:41:03;27.30;;;17.10;;
77571;SDS011;67214;47.454;18.966;2024-01-30T10:43:40;26.87;;;16.62;;
77571;SDS011;67214;47.454;18.966;2024-01-30T10:46:06;29.25;;;17.02;;
77571;SDS011;67214;47.454;18.966;2024-01-30T10:48:41;26.12;;;15.60;;
77571;SDS011;67214;47.454;18.966;2024-01-30T10:51:14;27.37;;;14.60;;
77571;SDS011;67214;47.454;18.966;2024-01-30T10:53:43;25.77;;;14.70;;
77571;SDS011;67214;47.454;18.966;2024-01-30T10:56:14;26.52;;;15.40;;
77571;SDS011;67214;47.454;18.966;2024-01-30T10:58:43;27.17;;;16.73;;
77571;SDS011;67214;47.454;18.966;2024-01-30T11:01:11;25.50;;;15.13;;
77571;SDS011;67214;47.454;18.966;2024-01-30T11:03:39;24.77;;;12.90;;
77571;SDS011;67214;47.454;18.966;2024-01-30T11:06:10;23.98;;;14.45;;
77571;SDS011;67214;47.454;18.966;2024-01-30T11:08:39;19.25;;;12.23;;
77571;SDS011;67214;47.454;18.966;2024-01-30T11:11:08;28.87;;;15.10;;
77571;SDS011;67214;47.454;18.966;2024-01-30T11:13:36;24.90;;;15.35;;
77571;SDS011;67214;47.454;18.966;2024-01-30T11:16:05;22.82;;;15.10;;
77571;SDS011;67214;47.454;18.966;2024-01-30T11:18:33;20.60;;;13.58;;
77571;SDS011;67214;47.454;18.966;2024-01-30T11:21:04;20.30;;;13.10;;
77571;SDS011;67214;47.454;18.966;2024-01-30T11:23:33;23.60;;;14.18;;
77571;SDS011;67214;47.454;18.966;2024-01-30T11:26:01;23.27;;;13.90;;
77571;SDS011;67214;47.454;18.966;2024-01-30T11:28:33;18.70;;;12.53;;
77571;SDS011;67214;47.454;18.966;2024-01-30T11:31:07;22.40;;;13.48;;
77571;SDS011;67214;47.454;18.966;2024-01-30T11:33:35;23.27;;;12.57;;
77571;SDS011;67214;47.454;18.966;2024-01-30T11:36:03;20.40;;;12.85;;
77571;SDS011;67214;47.454;18.966;2024-01-30T11:38:33;22.73;;;14.43;;
77571;SDS011;67214;47.454;18.966;2024-01-30T11:41:01;20.95;;;11.73;;
77571;SDS011;67214;47.454;18.966;2024-01-30T11:43:29;23.22;;;11.75;;
77571;SDS011;67214;47.454;18.966;2024-01-30T11:45:59;22.65;;;12.63;;
77571;SDS011;67214;47.454;18.966;2024-01-30T11:48:28;21.85;;;14.93;;
77571;SDS011;67214;47.454;18.966;2024-01-30T11:50:55;23.87;;;13.43;;
77571;SDS011;67214;47.454;18.966;2024-01-30T11:53:24;27.98;;;16.25;;
77571;SDS011;67214;47.454;18.966;2024-01-30T11:55:52;21.50;;;12.90;;
77571;SDS011;67214;47.454;18.966;2024-01-30T11:58:20;24.10;;;14.58;;
77571;SDS011;67214;47.454;18.966;2024-01-30T12:00:55;20.90;;;12.65;;
77571;SDS011;67214;47.454;18.966;2024-01-30T12:03:23;18.37;;;12.70;;
77571;SDS011;67214;47.454;18.966;2024-01-30T12:05:57;21.20;;;12.55;;
77571;SDS011;67214;47.454;18.966;2024-01-30T12:08:26;22.90;;;12.82;;
77571;SDS011;67214;47.454;18.966;2024-01-30T12:11:02;20.62;;;13.40;;
77571;SDS011;67214;47.454;18.966;2024-01-30T12:13:27;21.30;;;12.40;;
77571;SDS011;67214;47.454;18.966;2024-01-30T12:15:55;25.02;;;13.62;;
77571;SDS011;67214;47.454;18.966;2024-01-30T12:18:23;22.58;;;11.88;;
77571;SDS011;67214;47.454;18.966;2024-01-30T12:20:57;17.45;;;10.70;;
77571;SDS011;67214;47.454;18.966;2024-01-30T12:23:28;19.23;;;11.38;;
77571;SDS011;67214;47.454;18.966;2024-01-30T12:25:55;18.25;;;11.08;;
77571;SDS011;67214;47.454;18.966;2024-01-30T12:28:23;22.17;;;12.85;;
77571;SDS011;67214;47.454;18.966;2024-01-30T12:30:54;13.43;;;9.13;;
77571;SDS011;67214;47.454;18.966;2024-01-30T12:33:27;12.78;;;8.80;;
77571;SDS011;67214;47.454;18.966;2024-01-30T12:35:56;12.05;;;8.15;;
77571;SDS011;67214;47.454;18.966;2024-01-30T12:38:26;13.60;;;7.45;;
77571;SDS011;67214;47.454;18.966;2024-01-30T12:40:54;12.13;;;7.92;;
77571;SDS011;67214;47.454;18.966;2024-01-30T12:43:22;12.18;;;7.58;;
77571;SDS011;67214;47.454;18.966;2024-01-30T12:45:54;12.82;;;7.78;;
77571;SDS011;67214;47.454;18.966;2024-01-30T12:48:21;11.75;;;7.40;;
77571;SDS011;67214;47.454;18.966;2024-01-30T12:50:49;20.32;;;7.45;;
77571;SDS011;67214;47.454;18.966;2024-01-30T12:53:16;10.88;;;7.50;;
77571;SDS011;67214;47.454;18.966;2024-01-30T12:55:44;10.10;;;7.58;;
77571;SDS011;67214;47.454;18.966;2024-01-30T12:58:11;14.47;;;9.80;;
77571;SDS011;67214;47.454;18.966;2024-01-30T13:00:39;15.50;;;11.57;;
77571;SDS011;67214;47.454;18.966;2024-01-30T13:03:08;15.10;;;7.45;;
77571;SDS011;67214;47.454;18.966;2024-01-30T13:05:36;12.10;;;8.28;;
77571;SDS011;67214;47.454;18.966;2024-01-30T13:08:04;15.80;;;8.18;;
77571;SDS011;67214;47.454;18.966;2024-01-30T13:10:31;19.70;;;13.13;;
77571;SDS011;67214;47.454;18.966;2024-01-30T13:12:59;20.08;;;10.95;;
77571;SDS011;67214;47.454;18.966;2024-01-30T13:15:26;13.13;;;9.33;;
77571;SDS011;67214;47.454;18.966;2024-01-30T13:17:54;9.68;;;6.72;;
77571;SDS011;67214;47.454;18.966;2024-01-30T13:20:21;11.97;;;8.20;;
77571;SDS011;67214;47.454;18.966;2024-01-30T13:22:48;14.45;;;9.50;;
77571;SDS011;67214;47.454;18.966;2024-01-30T13:25:16;11.93;;;6.75;;
77571;SDS011;67214;47.454;18.966;2024-01-30T13:27:44;12.05;;;7.10;;
77571;SDS011;67214;47.454;18.966;2024-01-30T13:30:11;11.38;;;6.85;;
77571;SDS011;67214;47.454;18.966;2024-01-30T13:32:39;12.10;;;6.90;;
77571;SDS011;67214;47.454;18.966;2024-01-30T13:35:09;10.82;;;7.08;;
77571;SDS011;67214;47.454;18.966;2024-01-30T13:37:37;10.18;;;6.80;;
77571;SDS011;67214;47.454;18.966;2024-01-30T13:40:05;10.03;;;6.40;;
77571;SDS011;67214;47.454;18.966;2024-01-30T13:42:33;9.30;;;6.58;;
77571;SDS011;67214;47.454;18.966;2024-01-30T13:45:00;10.70;;;6.40;;
77571;SDS011;67214;47.454;18.966;2024-01-30T13:47:29;11.30;;;7.20;;
77571;SDS011;67214;47.454;18.966;2024-01-30T13:49:57;11.12;;;8.00;;
77571;SDS011;67214;47.454;18.966;2024-01-30T13:52:25;12.98;;;8.28;;
77571;SDS011;67214;47.454;18.966;2024-01-30T13:54:52;12.35;;;7.58;;
77571;SDS011;67214;47.454;18.966;2024-01-30T13:57:20;14.83;;;7.85;;
77571;SDS011;67214;47.454;18.966;2024-01-30T13:59:47;10.13;;;7.37;;
77571;SDS011;67214;47.454;18.966;2024-01-30T14:02:15;12.73;;;9.00;;
77571;SDS011;67214;47.454;18.966;2024-01-30T14:04:42;11.15;;;8.45;;
77571;SDS011;67214;47.454;18.966;2024-01-30T14:07:10;12.33;;;9.15;;
77571;SDS011;67214;47.454;18.966;2024-01-30T14:09:37;11.83;;;8.30;;
77571;SDS011;67214;47.454;18.966;2024-01-30T14:12:05;10.18;;;7.83;;
77571;SDS011;67214;47.454;18.966;2024-01-30T14:14:33;12.30;;;7.60;;